Hauptseite
METAR-TAF:

METAR-TAF

Flughäfen :

Flughafen Inverness

Inverness, Schottland

Breite: 57-32N, Länge: 004-03W, Höhe: 9 m

Beobachtung

Neuester Wetterbericht von vor 50 Minuten, um 05:20 UTC
Windstille
Temperatur 1°C
Luftfeuchtigkeit 100%
Luftdruck 1001 hPa
Sichtweite 10 km oder mehr
keine Wolken unter 1500 m und keine Kumulonimbus oder Gewitterwolken

METAR: EGPE 220520Z 00000KT CAVOK 01/01 Q1001

Zeit: 06:10 (06:10 UTC)

Prognose

Neuester Wetterbericht von vor 1 Stunde und 11 Minuten, um 04:59 UTC
Gültige Prognose vom 22 um 06 UTC bis 22 um 15 UTC
Wind 6 kt aus Ost/Nordost
Sichtweite 10 km oder mehr
Leicht bewölkt in der Höhe von 4000 ft
Wahrscheinlichkeit 30% :
Zeitweise
vom 22 um 06 UTC bis 22 um 15 UTC
Sichtweite: 8000 m
Regenschauer

TAF: EGPE 220459Z 2206/2215 07006KT 9999 FEW040 PROB30 TEMPO 2206/2215 8000 -SHRA

Wetterbeobachtungen und Prognosen von mehr als 4000 Flughäfen (METAR und TAF Bericht).

Die verfügbaren Stationen werden durch gelbe und rote Markierungen auf der Karte dargestellt.

Führen Sie die Maus auf sie, um den Namen der Station zu sehen.

Darauf klicken, um die Beobachtung von Wetterbeobachtungen und Prognosen zu sehen.

Um die Karte zu ändern : klicken Sie auf den grünen Tasten mit einem schwarzen Kreuz Zum Vergrößern, auf den grünen Button mit einem Gedankenstrich zu verkleinern, oder auf die grünen Pfeile für benachbarte Karten.


METAR-TAF: